sensor_id;sensor_type;location;lat;lon;timestamp;P1;durP1;ratioP1;P2;durP2;ratioP2
46377;SDS011;32083;47.360;9.650;2023-07-08T00:00:42;9.60;;;5.70;;
46377;SDS011;32083;47.360;9.650;2023-07-08T00:03:08;11.07;;;6.50;;
46377;SDS011;32083;47.360;9.650;2023-07-08T00:05:37;13.95;;;6.90;;
46377;SDS011;32083;47.360;9.650;2023-07-08T00:08:03;7.13;;;5.18;;
46377;SDS011;32083;47.360;9.650;2023-07-08T00:10:29;12.52;;;6.93;;
46377;SDS011;32083;47.360;9.650;2023-07-08T00:12:55;10.73;;;6.07;;
46377;SDS011;32083;47.360;9.650;2023-07-08T00:15:27;11.20;;;6.03;;
46377;SDS011;32083;47.360;9.650;2023-07-08T00:17:54;8.68;;;5.25;;
46377;SDS011;32083;47.360;9.650;2023-07-08T00:20:22;9.25;;;5.63;;
46377;SDS011;32083;47.360;9.650;2023-07-08T00:22:54;15.32;;;6.75;;
46377;SDS011;32083;47.360;9.650;2023-07-08T00:25:20;12.05;;;6.63;;
46377;SDS011;32083;47.360;9.650;2023-07-08T00:27:46;14.73;;;6.57;;
46377;SDS011;32083;47.360;9.650;2023-07-08T00:30:25;9.65;;;6.47;;
46377;SDS011;32083;47.360;9.650;2023-07-08T00:32:55;10.85;;;5.78;;
46377;SDS011;32083;47.360;9.650;2023-07-08T00:35:55;7.45;;;5.70;;
46377;SDS011;32083;47.360;9.650;2023-07-08T00:38:19;7.93;;;5.65;;
46377;SDS011;32083;47.360;9.650;2023-07-08T00:40:54;11.52;;;7.78;;
46377;SDS011;32083;47.360;9.650;2023-07-08T00:43:35;12.00;;;7.13;;
46377;SDS011;32083;47.360;9.650;2023-07-08T00:46:28;10.90;;;6.03;;
46377;SDS011;32083;47.360;9.650;2023-07-08T00:51:33;10.18;;;6.55;;
46377;SDS011;32083;47.360;9.650;2023-07-08T00:56:42;8.00;;;5.22;;
46377;SDS011;32083;47.360;9.650;2023-07-08T00:59:14;10.55;;;5.85;;
46377;SDS011;32083;47.360;9.650;2023-07-08T01:01:45;8.82;;;5.85;;
46377;SDS011;32083;47.360;9.650;2023-07-08T01:04:18;10.30;;;6.03;;
46377;SDS011;32083;47.360;9.650;2023-07-08T01:06:49;13.70;;;5.38;;
46377;SDS011;32083;47.360;9.650;2023-07-08T01:11:49;10.98;;;5.85;;
46377;SDS011;32083;47.360;9.650;2023-07-08T01:14:16;7.07;;;5.28;;
46377;SDS011;32083;47.360;9.650;2023-07-08T01:16:45;8.10;;;5.63;;
46377;SDS011;32083;47.360;9.650;2023-07-08T01:19:13;9.15;;;6.00;;
46377;SDS011;32083;47.360;9.650;2023-07-08T01:21:46;12.68;;;6.18;;
46377;SDS011;32083;47.360;9.650;2023-07-08T01:24:26;8.57;;;6.15;;
46377;SDS011;32083;47.360;9.650;2023-07-08T01:26:54;7.47;;;5.50;;
46377;SDS011;32083;47.360;9.650;2023-07-08T01:29:21;10.48;;;6.45;;
46377;SDS011;32083;47.360;9.650;2023-07-08T01:31:48;10.32;;;5.90;;
46377;SDS011;32083;47.360;9.650;2023-07-08T01:34:17;6.43;;;5.03;;
46377;SDS011;32083;47.360;9.650;2023-07-08T01:36:47;11.82;;;5.97;;
46377;SDS011;32083;47.360;9.650;2023-07-08T01:39:20;7.72;;;5.97;;
46377;SDS011;32083;47.360;9.650;2023-07-08T01:41:47;11.25;;;5.60;;
46377;SDS011;32083;47.360;9.650;2023-07-08T01:46:52;9.80;;;6.10;;
46377;SDS011;32083;47.360;9.650;2023-07-08T01:49:21;11.90;;;5.70;;
46377;SDS011;32083;47.360;9.650;2023-07-08T01:51:47;9.65;;;5.85;;
46377;SDS011;32083;47.360;9.650;2023-07-08T01:54:14;11.35;;;6.13;;
46377;SDS011;32083;47.360;9.650;2023-07-08T01:56:40;8.45;;;5.38;;
46377;SDS011;32083;47.360;9.650;2023-07-08T01:59:06;6.57;;;5.53;;
46377;SDS011;32083;47.360;9.650;2023-07-08T02:01:31;11.32;;;5.60;;
46377;SDS011;32083;47.360;9.650;2023-07-08T02:03:57;8.82;;;6.10;;
46377;SDS011;32083;47.360;9.650;2023-07-08T02:06:23;8.50;;;5.25;;
46377;SDS011;32083;47.360;9.650;2023-07-08T02:08:48;9.38;;;6.65;;
46377;SDS011;32083;47.360;9.650;2023-07-08T02:11:16;6.97;;;4.68;;
46377;SDS011;32083;47.360;9.650;2023-07-08T02:13:42;11.00;;;4.93;;
46377;SDS011;32083;47.360;9.650;2023-07-08T02:16:07;9.82;;;5.32;;
46377;SDS011;32083;47.360;9.650;2023-07-08T02:18:33;7.20;;;5.10;;
46377;SDS011;32083;47.360;9.650;2023-07-08T02:20:59;7.25;;;4.82;;
46377;SDS011;32083;47.360;9.650;2023-07-08T02:23:25;11.30;;;5.97;;
46377;SDS011;32083;47.360;9.650;2023-07-08T02:25:51;9.30;;;5.40;;
46377;SDS011;32083;47.360;9.650;2023-07-08T02:28:17;7.50;;;4.80;;
46377;SDS011;32083;47.360;9.650;2023-07-08T02:30:43;12.80;;;5.97;;
46377;SDS011;32083;47.360;9.650;2023-07-08T02:33:11;10.27;;;5.47;;
46377;SDS011;32083;47.360;9.650;2023-07-08T02:35:37;8.30;;;5.93;;
46377;SDS011;32083;47.360;9.650;2023-07-08T02:38:02;10.00;;;5.22;;
46377;SDS011;32083;47.360;9.650;2023-07-08T02:40:28;10.60;;;5.30;;
46377;SDS011;32083;47.360;9.650;2023-07-08T02:42:54;11.55;;;5.80;;
46377;SDS011;32083;47.360;9.650;2023-07-08T02:45:19;9.02;;;6.93;;
46377;SDS011;32083;47.360;9.650;2023-07-08T02:47:45;8.75;;;5.70;;
46377;SDS011;32083;47.360;9.650;2023-07-08T02:50:11;8.00;;;6.80;;
46377;SDS011;32083;47.360;9.650;2023-07-08T02:52:37;8.18;;;6.47;;
46377;SDS011;32083;47.360;9.650;2023-07-08T02:55:03;10.05;;;6.45;;
46377;SDS011;32083;47.360;9.650;2023-07-08T02:57:29;11.02;;;5.72;;
46377;SDS011;32083;47.360;9.650;2023-07-08T02:59:55;9.82;;;6.38;;
46377;SDS011;32083;47.360;9.650;2023-07-08T03:02:21;9.07;;;6.72;;
46377;SDS011;32083;47.360;9.650;2023-07-08T03:04:48;8.48;;;6.35;;
46377;SDS011;32083;47.360;9.650;2023-07-08T03:07:15;8.63;;;5.18;;
46377;SDS011;32083;47.360;9.650;2023-07-08T03:09:41;7.25;;;5.97;;
46377;SDS011;32083;47.360;9.650;2023-07-08T03:12:08;7.05;;;5.53;;
46377;SDS011;32083;47.360;9.650;2023-07-08T03:14:35;9.23;;;5.85;;
46377;SDS011;32083;47.360;9.650;2023-07-08T03:17:01;7.88;;;5.50;;
46377;SDS011;32083;47.360;9.650;2023-07-08T03:19:28;8.32;;;5.80;;
46377;SDS011;32083;47.360;9.650;2023-07-08T03:21:53;9.93;;;6.22;;
46377;SDS011;32083;47.360;9.650;2023-07-08T03:24:19;9.02;;;6.43;;
46377;SDS011;32083;47.360;9.650;2023-07-08T03:26:45;10.43;;;6.22;;
46377;SDS011;32083;47.360;9.650;2023-07-08T03:29:13;10.73;;;6.32;;
46377;SDS011;32083;47.360;9.650;2023-07-08T03:31:40;8.05;;;6.00;;
46377;SDS011;32083;47.360;9.650;2023-07-08T03:34:08;8.93;;;5.88;;
46377;SDS011;32083;47.360;9.650;2023-07-08T03:36:36;9.35;;;5.28;;
46377;SDS011;32083;47.360;9.650;2023-07-08T03:39:09;9.98;;;5.63;;
46377;SDS011;32083;47.360;9.650;2023-07-08T03:41:34;9.05;;;6.65;;
46377;SDS011;32083;47.360;9.650;2023-07-08T03:44:00;7.95;;;5.68;;
46377;SDS011;32083;47.360;9.650;2023-07-08T03:46:26;7.00;;;5.47;;
46377;SDS011;32083;47.360;9.650;2023-07-08T03:48:51;7.35;;;6.07;;
46377;SDS011;32083;47.360;9.650;2023-07-08T03:51:20;7.28;;;5.28;;
46377;SDS011;32083;47.360;9.650;2023-07-08T03:53:48;7.13;;;6.10;;
46377;SDS011;32083;47.360;9.650;2023-07-08T03:56:14;9.70;;;6.22;;
46377;SDS011;32083;47.360;9.650;2023-07-08T03:58:40;9.52;;;5.57;;
46377;SDS011;32083;47.360;9.650;2023-07-08T04:01:09;7.32;;;5.45;;
46377;SDS011;32083;47.360;9.650;2023-07-08T04:03:40;9.20;;;5.38;;
46377;SDS011;32083;47.360;9.650;2023-07-08T04:06:06;7.72;;;5.50;;
46377;SDS011;32083;47.360;9.650;2023-07-08T04:08:32;7.47;;;5.22;;
46377;SDS011;32083;47.360;9.650;2023-07-08T04:10:57;9.07;;;5.78;;
46377;SDS011;32083;47.360;9.650;2023-07-08T04:13:23;10.90;;;5.80;;
46377;SDS011;32083;47.360;9.650;2023-07-08T04:15:56;8.65;;;6.13;;
46377;SDS011;32083;47.360;9.650;2023-07-08T04:18:26;9.23;;;5.28;;
46377;SDS011;32083;47.360;9.650;2023-07-08T04:20:52;8.35;;;5.55;;
46377;SDS011;32083;47.360;9.650;2023-07-08T04:23:21;8.98;;;6.90;;
46377;SDS011;32083;47.360;9.650;2023-07-08T04:25:48;7.30;;;5.25;;
46377;SDS011;32083;47.360;9.650;2023-07-08T04:28:15;7.55;;;5.72;;
46377;SDS011;32083;47.360;9.650;2023-07-08T04:30:41;8.77;;;6.03;;
46377;SDS011;32083;47.360;9.650;2023-07-08T04:33:08;10.48;;;6.20;;
46377;SDS011;32083;47.360;9.650;2023-07-08T04:35:35;12.77;;;6.38;;
46377;SDS011;32083;47.360;9.650;2023-07-08T04:38:04;11.10;;;6.80;;
46377;SDS011;32083;47.360;9.650;2023-07-08T04:40:34;9.73;;;5.85;;
46377;SDS011;32083;47.360;9.650;2023-07-08T04:43:05;9.95;;;6.10;;
46377;SDS011;32083;47.360;9.650;2023-07-08T04:45:31;8.90;;;5.93;;
46377;SDS011;32083;47.360;9.650;2023-07-08T04:47:57;11.05;;;7.53;;
46377;SDS011;32083;47.360;9.650;2023-07-08T04:50:23;10.10;;;6.32;;
46377;SDS011;32083;47.360;9.650;2023-07-08T04:52:48;10.77;;;6.13;;
46377;SDS011;32083;47.360;9.650;2023-07-08T04:55:15;8.95;;;5.80;;
46377;SDS011;32083;47.360;9.650;2023-07-08T04:57:41;15.35;;;6.45;;
46377;SDS011;32083;47.360;9.650;2023-07-08T05:00:07;10.27;;;6.20;;
46377;SDS011;32083;47.360;9.650;2023-07-08T05:02:36;13.25;;;6.88;;
46377;SDS011;32083;47.360;9.650;2023-07-08T05:05:02;9.10;;;6.35;;
46377;SDS011;32083;47.360;9.650;2023-07-08T05:07:28;10.77;;;6.28;;
46377;SDS011;32083;47.360;9.650;2023-07-08T05:09:54;9.93;;;5.50;;
46377;SDS011;32083;47.360;9.650;2023-07-08T05:12:19;9.05;;;6.15;;
46377;SDS011;32083;47.360;9.650;2023-07-08T05:14:45;11.40;;;6.43;;
46377;SDS011;32083;47.360;9.650;2023-07-08T05:17:11;8.27;;;5.47;;
46377;SDS011;32083;47.360;9.650;2023-07-08T05:19:37;8.07;;;5.88;;
46377;SDS011;32083;47.360;9.650;2023-07-08T05:22:03;7.25;;;4.95;;
46377;SDS011;32083;47.360;9.650;2023-07-08T05:24:28;9.70;;;5.25;;
46377;SDS011;32083;47.360;9.650;2023-07-08T05:26:54;9.95;;;5.85;;
46377;SDS011;32083;47.360;9.650;2023-07-08T05:29:20;10.65;;;6.10;;
46377;SDS011;32083;47.360;9.650;2023-07-08T05:31:46;6.15;;;5.22;;
46377;SDS011;32083;47.360;9.650;2023-07-08T05:34:12;8.20;;;5.70;;
46377;SDS011;32083;47.360;9.650;2023-07-08T05:36:37;8.10;;;5.93;;
46377;SDS011;32083;47.360;9.650;2023-07-08T05:39:04;8.95;;;6.22;;
46377;SDS011;32083;47.360;9.650;2023-07-08T05:41:30;23.55;;;7.85;;
46377;SDS011;32083;47.360;9.650;2023-07-08T05:43:56;32.80;;;9.25;;
46377;SDS011;32083;47.360;9.650;2023-07-08T05:46:21;19.73;;;7.43;;
46377;SDS011;32083;47.360;9.650;2023-07-08T05:48:47;24.50;;;7.55;;
46377;SDS011;32083;47.360;9.650;2023-07-08T05:51:13;9.65;;;7.00;;
46377;SDS011;32083;47.360;9.650;2023-07-08T05:53:39;9.35;;;5.70;;
46377;SDS011;32083;47.360;9.650;2023-07-08T05:56:05;11.15;;;5.90;;
46377;SDS011;32083;47.360;9.650;2023-07-08T05:58:30;11.68;;;6.68;;
46377;SDS011;32083;47.360;9.650;2023-07-08T06:00:56;12.63;;;6.70;;
46377;SDS011;32083;47.360;9.650;2023-07-08T06:03:23;11.40;;;6.93;;
46377;SDS011;32083;47.360;9.650;2023-07-08T06:05:48;12.75;;;6.60;;
46377;SDS011;32083;47.360;9.650;2023-07-08T06:08:14;9.95;;;6.20;;
46377;SDS011;32083;47.360;9.650;2023-07-08T06:10:43;11.18;;;6.68;;
46377;SDS011;32083;47.360;9.650;2023-07-08T06:13:10;13.27;;;6.40;;
46377;SDS011;32083;47.360;9.650;2023-07-08T06:15:37;7.93;;;5.45;;
46377;SDS011;32083;47.360;9.650;2023-07-08T06:18:03;9.57;;;5.50;;
46377;SDS011;32083;47.360;9.650;2023-07-08T06:20:29;9.32;;;5.40;;
46377;SDS011;32083;47.360;9.650;2023-07-08T06:22:55;8.48;;;5.53;;
46377;SDS011;32083;47.360;9.650;2023-07-08T06:25:22;11.75;;;5.80;;
46377;SDS011;32083;47.360;9.650;2023-07-08T06:27:47;10.05;;;5.63;;
46377;SDS011;32083;47.360;9.650;2023-07-08T06:30:13;7.18;;;5.45;;
46377;SDS011;32083;47.360;9.650;2023-07-08T06:32:39;7.90;;;5.28;;
46377;SDS011;32083;47.360;9.650;2023-07-08T06:35:05;10.52;;;6.97;;
46377;SDS011;32083;47.360;9.650;2023-07-08T06:37:31;9.00;;;6.30;;
46377;SDS011;32083;47.360;9.650;2023-07-08T06:39:58;6.70;;;5.50;;
46377;SDS011;32083;47.360;9.650;2023-07-08T06:42:23;7.70;;;4.75;;
46377;SDS011;32083;47.360;9.650;2023-07-08T06:44:49;7.50;;;6.22;;
46377;SDS011;32083;47.360;9.650;2023-07-08T06:47:20;9.05;;;5.35;;
46377;SDS011;32083;47.360;9.650;2023-07-08T06:49:46;12.32;;;6.22;;
46377;SDS011;32083;47.360;9.650;2023-07-08T06:52:12;11.77;;;6.05;;
46377;SDS011;32083;47.360;9.650;2023-07-08T06:54:39;8.95;;;5.57;;
46377;SDS011;32083;47.360;9.650;2023-07-08T06:57:05;7.82;;;4.93;;
46377;SDS011;32083;47.360;9.650;2023-07-08T06:59:31;9.50;;;5.78;;
46377;SDS011;32083;47.360;9.650;2023-07-08T07:01:57;7.20;;;5.40;;
46377;SDS011;32083;47.360;9.650;2023-07-08T07:04:23;7.43;;;4.90;;
46377;SDS011;32083;47.360;9.650;2023-07-08T07:06:48;8.80;;;5.63;;
46377;SDS011;32083;47.360;9.650;2023-07-08T07:09:14;10.93;;;5.25;;
46377;SDS011;32083;47.360;9.650;2023-07-08T07:11:40;4.78;;;3.25;;
46377;SDS011;32083;47.360;9.650;2023-07-08T07:14:05;7.05;;;3.53;;
46377;SDS011;32083;47.360;9.650;2023-07-08T07:16:31;5.13;;;3.03;;
46377;SDS011;32083;47.360;9.650;2023-07-08T07:18:58;4.78;;;3.13;;
46377;SDS011;32083;47.360;9.650;2023-07-08T07:21:24;6.28;;;2.88;;
46377;SDS011;32083;47.360;9.650;2023-07-08T07:23:49;6.07;;;3.80;;
46377;SDS011;32083;47.360;9.650;2023-07-08T07:26:15;6.82;;;5.00;;
46377;SDS011;32083;47.360;9.650;2023-07-08T07:28:41;10.25;;;7.28;;
46377;SDS011;32083;47.360;9.650;2023-07-08T07:31:36;12.13;;;5.07;;
46377;SDS011;32083;47.360;9.650;2023-07-08T07:34:04;13.30;;;5.25;;
46377;SDS011;32083;47.360;9.650;2023-07-08T07:36:31;9.10;;;4.75;;
46377;SDS011;32083;47.360;9.650;2023-07-08T07:38:56;6.75;;;4.07;;
46377;SDS011;32083;47.360;9.650;2023-07-08T07:41:23;4.85;;;3.42;;
46377;SDS011;32083;47.360;9.650;2023-07-08T07:43:49;6.80;;;3.78;;
46377;SDS011;32083;47.360;9.650;2023-07-08T07:46:15;5.65;;;3.00;;
46377;SDS011;32083;47.360;9.650;2023-07-08T07:48:41;3.05;;;2.10;;
46377;SDS011;32083;47.360;9.650;2023-07-08T07:51:07;4.18;;;2.58;;
46377;SDS011;32083;47.360;9.650;2023-07-08T07:53:38;3.50;;;2.40;;
46377;SDS011;32083;47.360;9.650;2023-07-08T07:56:05;5.05;;;2.03;;
46377;SDS011;32083;47.360;9.650;2023-07-08T07:58:31;3.17;;;2.40;;
46377;SDS011;32083;47.360;9.650;2023-07-08T08:00:58;3.72;;;2.33;;
46377;SDS011;32083;47.360;9.650;2023-07-08T08:03:24;3.53;;;1.80;;
46377;SDS011;32083;47.360;9.650;2023-07-08T08:05:50;4.03;;;2.13;;
46377;SDS011;32083;47.360;9.650;2023-07-08T08:08:16;2.63;;;1.98;;
46377;SDS011;32083;47.360;9.650;2023-07-08T08:10:43;2.92;;;2.20;;
46377;SDS011;32083;47.360;9.650;2023-07-08T08:13:10;3.95;;;2.25;;
46377;SDS011;32083;47.360;9.650;2023-07-08T08:15:37;3.30;;;2.15;;
46377;SDS011;32083;47.360;9.650;2023-07-08T08:18:03;2.60;;;1.73;;
46377;SDS011;32083;47.360;9.650;2023-07-08T08:20:32;4.18;;;3.03;;
46377;SDS011;32083;47.360;9.650;2023-07-08T08:22:58;3.63;;;2.15;;
46377;SDS011;32083;47.360;9.650;2023-07-08T08:25:24;3.13;;;2.10;;
46377;SDS011;32083;47.360;9.650;2023-07-08T08:27:50;4.03;;;1.95;;
46377;SDS011;32083;47.360;9.650;2023-07-08T08:30:17;3.70;;;2.60;;
46377;SDS011;32083;47.360;9.650;2023-07-08T08:32:43;6.78;;;2.70;;
46377;SDS011;32083;47.360;9.650;2023-07-08T08:35:09;5.13;;;2.60;;
46377;SDS011;32083;47.360;9.650;2023-07-08T08:37:35;4.25;;;2.65;;
46377;SDS011;32083;47.360;9.650;2023-07-08T08:40:01;3.45;;;2.33;;
46377;SDS011;32083;47.360;9.650;2023-07-08T08:42:28;3.03;;;1.80;;
46377;SDS011;32083;47.360;9.650;2023-07-08T08:44:57;3.60;;;2.00;;
46377;SDS011;32083;47.360;9.650;2023-07-08T08:47:31;2.58;;;2.00;;
46377;SDS011;32083;47.360;9.650;2023-07-08T08:52:49;4.35;;;2.17;;
46377;SDS011;32083;47.360;9.650;2023-07-08T08:55:16;4.20;;;2.20;;
46377;SDS011;32083;47.360;9.650;2023-07-08T09:03:34;4.53;;;2.80;;
46377;SDS011;32083;47.360;9.650;2023-07-08T09:09:12;3.03;;;2.28;;
46377;SDS011;32083;47.360;9.650;2023-07-08T09:14:25;3.72;;;2.55;;
46377;SDS011;32083;47.360;9.650;2023-07-08T09:19:48;4.38;;;2.50;;
46377;SDS011;32083;47.360;9.650;2023-07-08T09:22:44;4.40;;;2.40;;
46377;SDS011;32083;47.360;9.650;2023-07-08T09:25:28;2.78;;;2.28;;
46377;SDS011;32083;47.360;9.650;2023-07-08T09:28:19;4.70;;;2.35;;
46377;SDS011;32083;47.360;9.650;2023-07-08T09:30:48;5.95;;;2.22;;
46377;SDS011;32083;47.360;9.650;2023-07-08T09:33:18;5.03;;;2.45;;
46377;SDS011;32083;47.360;9.650;2023-07-08T09:35:45;3.60;;;2.47;;
46377;SDS011;32083;47.360;9.650;2023-07-08T09:38:17;4.78;;;2.00;;
46377;SDS011;32083;47.360;9.650;2023-07-08T09:40:47;4.95;;;3.30;;
46377;SDS011;32083;47.360;9.650;2023-07-08T09:46:02;6.18;;;2.72;;
46377;SDS011;32083;47.360;9.650;2023-07-08T09:48:28;5.53;;;2.65;;
46377;SDS011;32083;47.360;9.650;2023-07-08T09:50:57;3.92;;;2.60;;
46377;SDS011;32083;47.360;9.650;2023-07-08T09:53:24;3.33;;;2.30;;
46377;SDS011;32083;47.360;9.650;2023-07-08T09:55:51;6.43;;;2.92;;
46377;SDS011;32083;47.360;9.650;2023-07-08T09:58:40;5.55;;;2.47;;
46377;SDS011;32083;47.360;9.650;2023-07-08T10:01:23;8.50;;;2.42;;
46377;SDS011;32083;47.360;9.650;2023-07-08T10:03:51;6.28;;;2.90;;
46377;SDS011;32083;47.360;9.650;2023-07-08T10:06:26;3.38;;;2.55;;
46377;SDS011;32083;47.360;9.650;2023-07-08T10:08:55;3.63;;;2.40;;
46377;SDS011;32083;47.360;9.650;2023-07-08T10:11:26;3.90;;;3.08;;
46377;SDS011;32083;47.360;9.650;2023-07-08T10:13:59;3.92;;;2.42;;
46377;SDS011;32083;47.360;9.650;2023-07-08T10:16:30;9.20;;;2.85;;
46377;SDS011;32083;47.360;9.650;2023-07-08T10:18:58;4.88;;;2.70;;
46377;SDS011;32083;47.360;9.650;2023-07-08T10:26:46;4.93;;;2.35;;
46377;SDS011;32083;47.360;9.650;2023-07-08T10:32:54;3.38;;;2.28;;
46377;SDS011;32083;47.360;9.650;2023-07-08T10:35:33;3.65;;;2.42;;
46377;SDS011;32083;47.360;9.650;2023-07-08T10:40:49;3.47;;;2.63;;
46377;SDS011;32083;47.360;9.650;2023-07-08T10:43:22;2.92;;;2.28;;
46377;SDS011;32083;47.360;9.650;2023-07-08T10:51:41;4.20;;;3.28;;
46377;SDS011;32083;47.360;9.650;2023-07-08T10:59:22;6.07;;;2.53;;
46377;SDS011;32083;47.360;9.650;2023-07-08T11:07:51;3.05;;;2.25;;
46377;SDS011;32083;47.360;9.650;2023-07-08T11:10:36;6.82;;;2.50;;
46377;SDS011;32083;47.360;9.650;2023-07-08T11:13:13;7.60;;;3.42;;
46377;SDS011;32083;47.360;9.650;2023-07-08T11:15:51;2.88;;;1.95;;
46377;SDS011;32083;47.360;9.650;2023-07-08T11:18:25;5.25;;;3.33;;
46377;SDS011;32083;47.360;9.650;2023-07-08T11:20:57;4.68;;;3.00;;
46377;SDS011;32083;47.360;9.650;2023-07-08T11:23:36;3.20;;;2.40;;
46377;SDS011;32083;47.360;9.650;2023-07-08T11:28:47;3.30;;;2.80;;
46377;SDS011;32083;47.360;9.650;2023-07-08T11:31:16;3.97;;;2.55;;
46377;SDS011;32083;47.360;9.650;2023-07-08T11:33:42;4.75;;;3.13;;
46377;SDS011;32083;47.360;9.650;2023-07-08T11:36:10;4.85;;;3.53;;
46377;SDS011;32083;47.360;9.650;2023-07-08T11:38:37;3.20;;;2.30;;
46377;SDS011;32083;47.360;9.650;2023-07-08T11:41:18;4.72;;;2.80;;
46377;SDS011;32083;47.360;9.650;2023-07-08T11:43:50;4.20;;;3.80;;
46377;SDS011;32083;47.360;9.650;2023-07-08T11:46:21;9.65;;;7.35;;
46377;SDS011;32083;47.360;9.650;2023-07-08T11:48:53;14.23;;;12.40;;
46377;SDS011;32083;47.360;9.650;2023-07-08T11:51:26;28.48;;;24.75;;
46377;SDS011;32083;47.360;9.650;2023-07-08T11:56:28;35.37;;;31.60;;
46377;SDS011;32083;47.360;9.650;2023-07-08T11:59:22;23.00;;;18.92;;
46377;SDS011;32083;47.360;9.650;2023-07-08T12:04:17;12.10;;;10.82;;
46377;SDS011;32083;47.360;9.650;2023-07-08T12:06:52;9.48;;;6.32;;
46377;SDS011;32083;47.360;9.650;2023-07-08T12:09:46;12.55;;;10.88;;
46377;SDS011;32083;47.360;9.650;2023-07-08T12:12:20;8.30;;;6.57;;
46377;SDS011;32083;47.360;9.650;2023-07-08T12:14:49;10.13;;;8.57;;
46377;SDS011;32083;47.360;9.650;2023-07-08T12:17:18;10.90;;;8.20;;
46377;SDS011;32083;47.360;9.650;2023-07-08T12:19:44;7.35;;;6.22;;
46377;SDS011;32083;47.360;9.650;2023-07-08T12:22:13;10.15;;;6.38;;
46377;SDS011;32083;47.360;9.650;2023-07-08T12:24:39;8.77;;;5.63;;
46377;SDS011;32083;47.360;9.650;2023-07-08T12:27:05;12.30;;;5.68;;
46377;SDS011;32083;47.360;9.650;2023-07-08T12:29:33;5.47;;;4.05;;
46377;SDS011;32083;47.360;9.650;2023-07-08T12:31:58;7.68;;;5.60;;
46377;SDS011;32083;47.360;9.650;2023-07-08T12:34:25;7.13;;;3.15;;
46377;SDS011;32083;47.360;9.650;2023-07-08T12:36:51;4.38;;;3.05;;
46377;SDS011;32083;47.360;9.650;2023-07-08T12:39:18;4.63;;;2.90;;
46377;SDS011;32083;47.360;9.650;2023-07-08T12:41:45;4.70;;;3.20;;
46377;SDS011;32083;47.360;9.650;2023-07-08T12:44:16;3.33;;;2.30;;
46377;SDS011;32083;47.360;9.650;2023-07-08T12:46:44;2.95;;;1.90;;
46377;SDS011;32083;47.360;9.650;2023-07-08T12:49:11;5.60;;;3.05;;
46377;SDS011;32083;47.360;9.650;2023-07-08T12:51:41;4.05;;;2.53;;
46377;SDS011;32083;47.360;9.650;2023-07-08T12:54:08;5.60;;;3.83;;
46377;SDS011;32083;47.360;9.650;2023-07-08T12:56:35;7.93;;;3.33;;
46377;SDS011;32083;47.360;9.650;2023-07-08T12:59:02;2.25;;;1.90;;
46377;SDS011;32083;47.360;9.650;2023-07-08T13:01:31;3.83;;;2.80;;
46377;SDS011;32083;47.360;9.650;2023-07-08T13:04:00;4.43;;;2.83;;
46377;SDS011;32083;47.360;9.650;2023-07-08T13:06:32;2.80;;;2.15;;
46377;SDS011;32083;47.360;9.650;2023-07-08T13:09:02;5.60;;;2.17;;
46377;SDS011;32083;47.360;9.650;2023-07-08T13:11:40;4.18;;;2.42;;
46377;SDS011;32083;47.360;9.650;2023-07-08T13:14:07;3.58;;;2.03;;
46377;SDS011;32083;47.360;9.650;2023-07-08T13:16:33;4.63;;;2.17;;
46377;SDS011;32083;47.360;9.650;2023-07-08T13:19:00;3.30;;;2.60;;
46377;SDS011;32083;47.360;9.650;2023-07-08T13:21:26;3.97;;;2.75;;
46377;SDS011;32083;47.360;9.650;2023-07-08T13:23:53;6.07;;;3.22;;
46377;SDS011;32083;47.360;9.650;2023-07-08T13:26:23;4.75;;;2.78;;
46377;SDS011;32083;47.360;9.650;2023-07-08T13:28:59;8.48;;;3.17;;
46377;SDS011;32083;47.360;9.650;2023-07-08T13:31:31;4.88;;;2.40;;
46377;SDS011;32083;47.360;9.650;2023-07-08T13:34:08;3.58;;;2.58;;
46377;SDS011;32083;47.360;9.650;2023-07-08T13:36:44;4.57;;;2.22;;
46377;SDS011;32083;47.360;9.650;2023-07-08T13:39:29;6.45;;;2.20;;
46377;SDS011;32083;47.360;9.650;2023-07-08T13:41:58;9.20;;;3.35;;
46377;SDS011;32083;47.360;9.650;2023-07-08T13:44:26;2.78;;;2.10;;
46377;SDS011;32083;47.360;9.650;2023-07-08T13:46:53;5.75;;;2.75;;
46377;SDS011;32083;47.360;9.650;2023-07-08T13:49:29;4.20;;;2.72;;
46377;SDS011;32083;47.360;9.650;2023-07-08T13:54:38;5.65;;;2.75;;
46377;SDS011;32083;47.360;9.650;2023-07-08T13:57:19;3.17;;;2.15;;
46377;SDS011;32083;47.360;9.650;2023-07-08T13:59:48;6.70;;;2.88;;
46377;SDS011;32083;47.360;9.650;2023-07-08T14:04:43;9.65;;;3.00;;
46377;SDS011;32083;47.360;9.650;2023-07-08T14:07:16;9.27;;;3.03;;
46377;SDS011;32083;47.360;9.650;2023-07-08T14:09:44;3.83;;;2.60;;
46377;SDS011;32083;47.360;9.650;2023-07-08T14:12:10;3.33;;;2.53;;
46377;SDS011;32083;47.360;9.650;2023-07-08T14:14:36;4.55;;;2.50;;
46377;SDS011;32083;47.360;9.650;2023-07-08T14:17:01;5.05;;;3.17;;
46377;SDS011;32083;47.360;9.650;2023-07-08T14:19:31;3.95;;;2.40;;
46377;SDS011;32083;47.360;9.650;2023-07-08T14:22:06;4.72;;;3.05;;
46377;SDS011;32083;47.360;9.650;2023-07-08T14:24:39;6.85;;;2.60;;
46377;SDS011;32083;47.360;9.650;2023-07-08T14:27:06;4.13;;;2.30;;
46377;SDS011;32083;47.360;9.650;2023-07-08T14:29:37;4.68;;;3.15;;
46377;SDS011;32083;47.360;9.650;2023-07-08T14:32:14;3.17;;;2.08;;
46377;SDS011;32083;47.360;9.650;2023-07-08T14:34:58;5.65;;;2.92;;
46377;SDS011;32083;47.360;9.650;2023-07-08T14:37:44;3.40;;;2.67;;
46377;SDS011;32083;47.360;9.650;2023-07-08T14:42:49;5.03;;;3.00;;
46377;SDS011;32083;47.360;9.650;2023-07-08T14:45:22;5.47;;;3.00;;
46377;SDS011;32083;47.360;9.650;2023-07-08T14:47:48;4.07;;;2.90;;
46377;SDS011;32083;47.360;9.650;2023-07-08T14:50:14;3.95;;;2.60;;
46377;SDS011;32083;47.360;9.650;2023-07-08T14:52:40;4.38;;;2.33;;
46377;SDS011;32083;47.360;9.650;2023-07-08T14:55:07;4.13;;;2.75;;
46377;SDS011;32083;47.360;9.650;2023-07-08T14:57:41;6.00;;;2.90;;
46377;SDS011;32083;47.360;9.650;2023-07-08T15:00:14;6.38;;;3.33;;
46377;SDS011;32083;47.360;9.650;2023-07-08T15:02:43;3.78;;;2.42;;
46377;SDS011;32083;47.360;9.650;2023-07-08T15:05:24;4.65;;;3.03;;
46377;SDS011;32083;47.360;9.650;2023-07-08T15:07:54;5.13;;;2.65;;
46377;SDS011;32083;47.360;9.650;2023-07-08T15:10:28;7.38;;;3.40;;
46377;SDS011;32083;47.360;9.650;2023-07-08T15:12:54;6.35;;;3.00;;
46377;SDS011;32083;47.360;9.650;2023-07-08T15:15:26;3.42;;;2.40;;
46377;SDS011;32083;47.360;9.650;2023-07-08T15:17:57;4.15;;;2.55;;
46377;SDS011;32083;47.360;9.650;2023-07-08T15:20:24;5.53;;;3.25;;
46377;SDS011;32083;47.360;9.650;2023-07-08T15:22:50;3.30;;;2.47;;
46377;SDS011;32083;47.360;9.650;2023-07-08T15:25:16;8.38;;;2.85;;
46377;SDS011;32083;47.360;9.650;2023-07-08T15:27:50;4.13;;;2.53;;
46377;SDS011;32083;47.360;9.650;2023-07-08T15:30:20;5.43;;;3.20;;
46377;SDS011;32083;47.360;9.650;2023-07-08T15:32:50;5.00;;;3.17;;
46377;SDS011;32083;47.360;9.650;2023-07-08T15:35:18;6.05;;;3.50;;
46377;SDS011;32083;47.360;9.650;2023-07-08T15:37:46;3.72;;;2.63;;
46377;SDS011;32083;47.360;9.650;2023-07-08T15:40:16;8.52;;;3.35;;
46377;SDS011;32083;47.360;9.650;2023-07-08T15:42:44;7.13;;;3.38;;
46377;SDS011;32083;47.360;9.650;2023-07-08T15:45:12;3.35;;;2.90;;
46377;SDS011;32083;47.360;9.650;2023-07-08T15:47:47;9.88;;;3.35;;
46377;SDS011;32083;47.360;9.650;2023-07-08T15:50:13;4.88;;;3.15;;
46377;SDS011;32083;47.360;9.650;2023-07-08T15:52:42;4.50;;;2.90;;
46377;SDS011;32083;47.360;9.650;2023-07-08T15:55:08;3.95;;;2.58;;
46377;SDS011;32083;47.360;9.650;2023-07-08T15:57:48;4.10;;;3.00;;
46377;SDS011;32083;47.360;9.650;2023-07-08T16:00:29;3.83;;;3.00;;
46377;SDS011;32083;47.360;9.650;2023-07-08T16:02:58;3.85;;;2.35;;
46377;SDS011;32083;47.360;9.650;2023-07-08T16:05:26;3.58;;;2.70;;
46377;SDS011;32083;47.360;9.650;2023-07-08T16:07:54;5.43;;;2.88;;
46377;SDS011;32083;47.360;9.650;2023-07-08T16:10:21;6.85;;;3.15;;